sensor_id;sensor_type;location;lat;lon;timestamp;pressure;altitude;pressure_sealevel;temperature;humidity
48810;BME280;40070;47.322;18.784;2023-05-19T00:00:23;1008.89;;;15.58;81.50
48810;BME280;40070;47.322;18.784;2023-05-19T00:02:24;1008.92;;;15.57;81.48
48810;BME280;40070;47.322;18.784;2023-05-19T00:04:26;1008.91;;;15.52;81.59
48810;BME280;40070;47.322;18.784;2023-05-19T00:06:27;1008.89;;;15.62;81.12
48810;BME280;40070;47.322;18.784;2023-05-19T00:08:31;1008.91;;;15.70;80.74
48810;BME280;40070;47.322;18.784;2023-05-19T00:10:33;1008.90;;;15.63;80.85
48810;BME280;40070;47.322;18.784;2023-05-19T00:12:34;1008.89;;;15.75;80.58
48810;BME280;40070;47.322;18.784;2023-05-19T00:14:36;1008.88;;;15.49;80.96
48810;BME280;40070;47.322;18.784;2023-05-19T00:16:37;1008.83;;;15.57;80.74
48810;BME280;40070;47.322;18.784;2023-05-19T00:18:38;1008.83;;;15.47;81.33
48810;BME280;40070;47.322;18.784;2023-05-19T00:20:39;1008.84;;;15.61;81.00
48810;BME280;40070;47.322;18.784;2023-05-19T00:22:40;1008.89;;;15.67;80.82
48810;BME280;40070;47.322;18.784;2023-05-19T00:24:41;1008.91;;;15.69;80.52
48810;BME280;40070;47.322;18.784;2023-05-19T00:26:41;1008.88;;;15.65;80.83
48810;BME280;40070;47.322;18.784;2023-05-19T00:28:42;1008.90;;;15.73;80.72
48810;BME280;40070;47.322;18.784;2023-05-19T00:30:43;1008.88;;;15.73;80.73
48810;BME280;40070;47.322;18.784;2023-05-19T00:32:44;1008.90;;;15.65;80.84
48810;BME280;40070;47.322;18.784;2023-05-19T00:34:45;1008.89;;;15.69;80.69
48810;BME280;40070;47.322;18.784;2023-05-19T00:36:46;1008.87;;;15.66;80.92
48810;BME280;40070;47.322;18.784;2023-05-19T00:38:47;1008.87;;;15.68;80.68
48810;BME280;40070;47.322;18.784;2023-05-19T00:40:47;1008.88;;;15.80;80.20
48810;BME280;40070;47.322;18.784;2023-05-19T00:42:48;1008.86;;;15.82;79.96
48810;BME280;40070;47.322;18.784;2023-05-19T00:44:49;1008.89;;;15.78;80.31
48810;BME280;40070;47.322;18.784;2023-05-19T00:46:50;1008.86;;;15.81;80.10
48810;BME280;40070;47.322;18.784;2023-05-19T00:48:51;1008.83;;;15.78;80.12
48810;BME280;40070;47.322;18.784;2023-05-19T00:50:52;1008.84;;;15.80;80.26
48810;BME280;40070;47.322;18.784;2023-05-19T00:52:54;1008.85;;;15.82;79.92
48810;BME280;40070;47.322;18.784;2023-05-19T00:54:55;1008.84;;;15.84;79.95
48810;BME280;40070;47.322;18.784;2023-05-19T00:56:56;1008.85;;;15.83;79.88
48810;BME280;40070;47.322;18.784;2023-05-19T00:58:58;1008.85;;;15.56;79.21
48810;BME280;40070;47.322;18.784;2023-05-19T01:01:00;1008.86;;;15.57;79.35
48810;BME280;40070;47.322;18.784;2023-05-19T01:03:01;1008.86;;;15.67;79.30
48810;BME280;40070;47.322;18.784;2023-05-19T01:05:02;1008.89;;;15.59;79.43
48810;BME280;40070;47.322;18.784;2023-05-19T01:07:03;1008.90;;;15.64;78.59
48810;BME280;40070;47.322;18.784;2023-05-19T01:09:04;1008.92;;;15.56;77.73
48810;BME280;40070;47.322;18.784;2023-05-19T01:11:06;1008.97;;;15.54;77.51
48810;BME280;40070;47.322;18.784;2023-05-19T01:13:07;1008.95;;;15.42;76.95
48810;BME280;40070;47.322;18.784;2023-05-19T01:15:08;1008.92;;;15.27;76.19
48810;BME280;40070;47.322;18.784;2023-05-19T01:17:13;1008.96;;;15.29;76.34
48810;BME280;40070;47.322;18.784;2023-05-19T01:19:30;1008.96;;;15.46;74.22
48810;BME280;40070;47.322;18.784;2023-05-19T01:30:45;1008.88;;;15.23;74.42
48810;BME280;40070;47.322;18.784;2023-05-19T01:32:48;1008.89;;;15.33;74.50
48810;BME280;40070;47.322;18.784;2023-05-19T01:34:50;1008.89;;;15.22;75.13
48810;BME280;40070;47.322;18.784;2023-05-19T01:36:55;1008.86;;;15.28;75.12
48810;BME280;40070;47.322;18.784;2023-05-19T01:39:01;1008.86;;;15.30;75.04
48810;BME280;40070;47.322;18.784;2023-05-19T01:41:03;1008.89;;;15.23;75.26
48810;BME280;40070;47.322;18.784;2023-05-19T01:43:06;1008.84;;;15.16;75.59
48810;BME280;40070;47.322;18.784;2023-05-19T01:45:07;1008.82;;;15.07;76.29
48810;BME280;40070;47.322;18.784;2023-05-19T01:47:08;1008.82;;;15.17;76.20
48810;BME280;40070;47.322;18.784;2023-05-19T01:49:10;1008.83;;;15.10;76.33
48810;BME280;40070;47.322;18.784;2023-05-19T01:51:11;1008.81;;;15.11;76.48
48810;BME280;40070;47.322;18.784;2023-05-19T01:53:12;1008.83;;;14.93;77.04
48810;BME280;40070;47.322;18.784;2023-05-19T01:55:13;1008.78;;;15.00;76.96
48810;BME280;40070;47.322;18.784;2023-05-19T01:57:29;1008.79;;;15.04;76.72
48810;BME280;40070;47.322;18.784;2023-05-19T01:59:39;1008.83;;;15.04;76.63
48810;BME280;40070;47.322;18.784;2023-05-19T02:01:48;1008.83;;;15.01;76.70
48810;BME280;40070;47.322;18.784;2023-05-19T02:06:28;1008.92;;;14.75;75.79
48810;BME280;40070;47.322;18.784;2023-05-19T02:08:26;1008.90;;;14.76;76.16
48810;BME280;40070;47.322;18.784;2023-05-19T02:10:29;1008.89;;;14.73;76.27
48810;BME280;40070;47.322;18.784;2023-05-19T02:12:35;1008.86;;;14.78;76.27
48810;BME280;40070;47.322;18.784;2023-05-19T02:14:52;1008.84;;;14.75;76.29
48810;BME280;40070;47.322;18.784;2023-05-19T02:16:54;1008.85;;;14.90;75.84
48810;BME280;40070;47.322;18.784;2023-05-19T02:18:56;1008.87;;;14.88;75.83
48810;BME280;40070;47.322;18.784;2023-05-19T02:20:57;1008.88;;;14.81;76.01
48810;BME280;40070;47.322;18.784;2023-05-19T02:22:58;1008.88;;;14.79;75.99
48810;BME280;40070;47.322;18.784;2023-05-19T02:24:59;1008.84;;;14.84;75.83
48810;BME280;40070;47.322;18.784;2023-05-19T02:27:00;1008.82;;;14.78;76.21
48810;BME280;40070;47.322;18.784;2023-05-19T02:29:01;1008.82;;;14.68;76.32
48810;BME280;40070;47.322;18.784;2023-05-19T02:31:02;1008.80;;;14.78;75.93
48810;BME280;40070;47.322;18.784;2023-05-19T02:33:03;1008.82;;;14.85;75.51
48810;BME280;40070;47.322;18.784;2023-05-19T02:35:04;1008.85;;;14.91;75.34
48810;BME280;40070;47.322;18.784;2023-05-19T02:37:05;1008.86;;;14.82;75.58
48810;BME280;40070;47.322;18.784;2023-05-19T02:39:06;1008.82;;;14.81;75.37
48810;BME280;40070;47.322;18.784;2023-05-19T02:41:07;1008.80;;;14.69;75.66
48810;BME280;40070;47.322;18.784;2023-05-19T02:43:08;1008.77;;;14.64;75.67
48810;BME280;40070;47.322;18.784;2023-05-19T02:45:09;1008.81;;;14.70;75.70
48810;BME280;40070;47.322;18.784;2023-05-19T02:47:10;1008.80;;;14.70;76.36
48810;BME280;40070;47.322;18.784;2023-05-19T02:49:11;1008.80;;;14.84;75.78
48810;BME280;40070;47.322;18.784;2023-05-19T02:51:11;1008.80;;;14.81;76.07
48810;BME280;40070;47.322;18.784;2023-05-19T02:53:12;1008.78;;;14.84;75.93
48810;BME280;40070;47.322;18.784;2023-05-19T02:55:13;1008.82;;;14.82;76.15
48810;BME280;40070;47.322;18.784;2023-05-19T02:57:14;1008.84;;;14.81;76.23
48810;BME280;40070;47.322;18.784;2023-05-19T02:59:15;1008.85;;;14.75;76.36
48810;BME280;40070;47.322;18.784;2023-05-19T03:01:16;1008.88;;;14.86;75.81
48810;BME280;40070;47.322;18.784;2023-05-19T03:03:17;1008.90;;;14.83;76.00
48810;BME280;40070;47.322;18.784;2023-05-19T03:05:17;1008.95;;;14.73;76.78
48810;BME280;40070;47.322;18.784;2023-05-19T03:07:18;1008.97;;;14.70;77.13
48810;BME280;40070;47.322;18.784;2023-05-19T03:09:19;1008.99;;;14.70;77.24
48810;BME280;40070;47.322;18.784;2023-05-19T03:11:20;1008.99;;;14.60;77.74
48810;BME280;40070;47.322;18.784;2023-05-19T03:13:21;1008.99;;;14.74;77.31
48810;BME280;40070;47.322;18.784;2023-05-19T03:15:22;1009.00;;;14.78;77.29
48810;BME280;40070;47.322;18.784;2023-05-19T03:17:23;1008.97;;;14.77;77.46
48810;BME280;40070;47.322;18.784;2023-05-19T03:19:24;1008.97;;;14.68;77.92
48810;BME280;40070;47.322;18.784;2023-05-19T03:21:24;1008.96;;;14.83;77.50
48810;BME280;40070;47.322;18.784;2023-05-19T03:23:25;1008.97;;;14.81;77.58
48810;BME280;40070;47.322;18.784;2023-05-19T03:25:26;1009.05;;;14.77;77.75
48810;BME280;40070;47.322;18.784;2023-05-19T03:27:28;1009.05;;;14.85;77.55
48810;BME280;40070;47.322;18.784;2023-05-19T03:29:28;1009.03;;;14.84;77.68
48810;BME280;40070;47.322;18.784;2023-05-19T03:31:29;1008.97;;;14.86;77.56
48810;BME280;40070;47.322;18.784;2023-05-19T03:33:30;1009.00;;;14.86;77.46
48810;BME280;40070;47.322;18.784;2023-05-19T03:35:31;1009.01;;;14.86;77.66
48810;BME280;40070;47.322;18.784;2023-05-19T03:37:32;1008.99;;;14.91;77.39
48810;BME280;40070;47.322;18.784;2023-05-19T03:41:58;1008.95;;;14.96;76.67
48810;BME280;40070;47.322;18.784;2023-05-19T03:43:59;1008.95;;;14.76;77.20
48810;BME280;40070;47.322;18.784;2023-05-19T03:48:25;1009.02;;;14.72;77.37
48810;BME280;40070;47.322;18.784;2023-05-19T03:50:26;1008.97;;;14.64;77.50
48810;BME280;40070;47.322;18.784;2023-05-19T03:52:27;1008.99;;;14.78;77.06
48810;BME280;40070;47.322;18.784;2023-05-19T03:54:28;1008.98;;;14.79;77.24
48810;BME280;40070;47.322;18.784;2023-05-19T03:56:29;1009.03;;;14.87;77.16
48810;BME280;40070;47.322;18.784;2023-05-19T03:58:32;1009.06;;;14.88;77.16
48810;BME280;40070;47.322;18.784;2023-05-19T04:00:38;1009.06;;;14.88;77.14
48810;BME280;40070;47.322;18.784;2023-05-19T04:02:51;1009.09;;;14.87;77.22
48810;BME280;40070;47.322;18.784;2023-05-19T04:04:52;1009.11;;;14.87;77.15
48810;BME280;40070;47.322;18.784;2023-05-19T04:06:53;1009.12;;;14.81;77.38
48810;BME280;40070;47.322;18.784;2023-05-19T04:08:54;1009.15;;;14.81;77.71
48810;BME280;40070;47.322;18.784;2023-05-19T04:10:55;1009.16;;;14.80;77.89
48810;BME280;40070;47.322;18.784;2023-05-19T04:12:56;1009.20;;;14.89;77.82
48810;BME280;40070;47.322;18.784;2023-05-19T04:15:19;1009.20;;;14.98;77.31
48810;BME280;40070;47.322;18.784;2023-05-19T04:17:20;1009.25;;;14.77;77.53
48810;BME280;40070;47.322;18.784;2023-05-19T04:19:21;1009.27;;;14.61;77.89
48810;BME280;40070;47.322;18.784;2023-05-19T04:21:21;1009.24;;;14.89;77.42
48810;BME280;40070;47.322;18.784;2023-05-19T04:23:25;1009.29;;;14.97;76.41
48810;BME280;40070;47.322;18.784;2023-05-19T04:25:26;1009.27;;;15.00;75.69
48810;BME280;40070;47.322;18.784;2023-05-19T04:27:27;1009.29;;;15.15;75.45
48810;BME280;40070;47.322;18.784;2023-05-19T04:32:14;1009.31;;;15.08;75.68
48810;BME280;40070;47.322;18.784;2023-05-19T04:34:15;1009.28;;;15.11;75.40
48810;BME280;40070;47.322;18.784;2023-05-19T04:36:16;1009.31;;;15.07;75.38
48810;BME280;40070;47.322;18.784;2023-05-19T04:40:54;1009.39;;;15.29;75.01
48810;BME280;40070;47.322;18.784;2023-05-19T04:43:07;1009.40;;;15.27;75.18
48810;BME280;40070;47.322;18.784;2023-05-19T04:45:08;1009.40;;;15.18;75.77
48810;BME280;40070;47.322;18.784;2023-05-19T04:47:34;1009.39;;;15.37;74.97
48810;BME280;40070;47.322;18.784;2023-05-19T04:49:35;1009.36;;;15.34;74.34
48810;BME280;40070;47.322;18.784;2023-05-19T04:51:36;1009.42;;;15.23;74.79
48810;BME280;40070;47.322;18.784;2023-05-19T04:53:36;1009.37;;;15.39;74.49
48810;BME280;40070;47.322;18.784;2023-05-19T04:58:03;1009.36;;;15.39;75.13
48810;BME280;40070;47.322;18.784;2023-05-19T05:00:04;1009.35;;;15.28;74.01
48810;BME280;40070;47.322;18.784;2023-05-19T05:02:05;1009.40;;;15.57;73.64
48810;BME280;40070;47.322;18.784;2023-05-19T05:04:11;1009.34;;;15.61;73.45
48810;BME280;40070;47.322;18.784;2023-05-19T05:06:12;1009.32;;;15.64;73.54
48810;BME280;40070;47.322;18.784;2023-05-19T05:08:34;1009.35;;;15.65;73.63
48810;BME280;40070;47.322;18.784;2023-05-19T05:10:37;1009.33;;;15.61;73.41
48810;BME280;40070;47.322;18.784;2023-05-19T05:12:44;1009.39;;;15.69;72.21
48810;BME280;40070;47.322;18.784;2023-05-19T05:14:51;1009.42;;;15.71;70.62
48810;BME280;40070;47.322;18.784;2023-05-19T05:16:56;1009.46;;;15.73;70.60
48810;BME280;40070;47.322;18.784;2023-05-19T05:19:02;1009.47;;;15.72;70.01
48810;BME280;40070;47.322;18.784;2023-05-19T05:21:04;1009.47;;;15.53;70.14
48810;BME280;40070;47.322;18.784;2023-05-19T05:23:05;1009.51;;;15.82;69.49
48810;BME280;40070;47.322;18.784;2023-05-19T05:25:06;1009.54;;;15.85;69.15
48810;BME280;40070;47.322;18.784;2023-05-19T05:32:07;1009.61;;;15.87;70.64
48810;BME280;40070;47.322;18.784;2023-05-19T05:36:18;1009.60;;;15.94;71.66
48810;BME280;40070;47.322;18.784;2023-05-19T05:38:25;1009.63;;;15.89;71.10
48810;BME280;40070;47.322;18.784;2023-05-19T05:40:31;1009.62;;;15.89;71.23
48810;BME280;40070;47.322;18.784;2023-05-19T05:42:36;1009.62;;;16.27;70.79
48810;BME280;40070;47.322;18.784;2023-05-19T05:44:43;1009.64;;;16.47;70.29
48810;BME280;40070;47.322;18.784;2023-05-19T05:46:49;1009.65;;;16.60;69.98
48810;BME280;40070;47.322;18.784;2023-05-19T05:48:55;1009.67;;;16.89;69.26
48810;BME280;40070;47.322;18.784;2023-05-19T05:51:01;1009.70;;;16.81;68.48
48810;BME280;40070;47.322;18.784;2023-05-19T05:53:07;1009.67;;;16.61;67.17
48810;BME280;40070;47.322;18.784;2023-05-19T05:55:13;1009.66;;;16.67;67.38
48810;BME280;40070;47.322;18.784;2023-05-19T05:57:20;1009.66;;;17.06;66.39
48810;BME280;40070;47.322;18.784;2023-05-19T05:59:25;1009.71;;;16.88;67.45
48810;BME280;40070;47.322;18.784;2023-05-19T06:01:31;1009.76;;;16.63;67.27
48810;BME280;40070;47.322;18.784;2023-05-19T06:03:38;1009.78;;;16.97;67.10
48810;BME280;40070;47.322;18.784;2023-05-19T06:05:50;1009.72;;;17.15;67.29
48810;BME280;40070;47.322;18.784;2023-05-19T06:07:51;1009.70;;;17.21;67.92
48810;BME280;40070;47.322;18.784;2023-05-19T06:10:04;1009.73;;;17.39;66.68
48810;BME280;40070;47.322;18.784;2023-05-19T06:12:05;1009.78;;;17.40;66.31
48810;BME280;40070;47.322;18.784;2023-05-19T06:16:14;1009.83;;;17.24;66.63
48810;BME280;40070;47.322;18.784;2023-05-19T06:18:15;1009.82;;;17.34;66.78
48810;BME280;40070;47.322;18.784;2023-05-19T06:20:19;1009.79;;;17.50;66.06
48810;BME280;40070;47.322;18.784;2023-05-19T06:22:37;1009.81;;;17.52;66.33
48810;BME280;40070;47.322;18.784;2023-05-19T06:24:43;1009.80;;;17.29;67.10
48810;BME280;40070;47.322;18.784;2023-05-19T06:26:49;1009.86;;;17.07;67.89
48810;BME280;40070;47.322;18.784;2023-05-19T06:31:16;1009.86;;;17.02;68.83
48810;BME280;40070;47.322;18.784;2023-05-19T06:33:17;1009.86;;;17.19;67.45
48810;BME280;40070;47.322;18.784;2023-05-19T06:35:17;1009.85;;;17.42;67.38
48810;BME280;40070;47.322;18.784;2023-05-19T06:37:30;1009.84;;;17.63;67.51
48810;BME280;40070;47.322;18.784;2023-05-19T06:39:36;1009.85;;;17.87;66.17
48810;BME280;40070;47.322;18.784;2023-05-19T06:41:37;1009.92;;;17.84;65.99
48810;BME280;40070;47.322;18.784;2023-05-19T06:43:56;1009.97;;;17.28;66.95
48810;BME280;40070;47.322;18.784;2023-05-19T06:46:03;1010.04;;;17.08;68.05
48810;BME280;40070;47.322;18.784;2023-05-19T06:48:08;1010.04;;;17.26;68.18
48810;BME280;40070;47.322;18.784;2023-05-19T06:50:15;1010.02;;;17.48;68.48
48810;BME280;40070;47.322;18.784;2023-05-19T06:52:21;1010.04;;;17.60;67.47
48810;BME280;40070;47.322;18.784;2023-05-19T06:54:27;1010.09;;;17.67;67.74
48810;BME280;40070;47.322;18.784;2023-05-19T06:58:39;1010.12;;;17.97;67.11
48810;BME280;40070;47.322;18.784;2023-05-19T07:00:45;1010.13;;;17.86;67.16
48810;BME280;40070;47.322;18.784;2023-05-19T07:02:51;1010.12;;;17.71;68.06
48810;BME280;40070;47.322;18.784;2023-05-19T07:04:58;1010.09;;;17.73;67.71
48810;BME280;40070;47.322;18.784;2023-05-19T07:07:03;1010.06;;;17.60;67.73
48810;BME280;40070;47.322;18.784;2023-05-19T07:20:43;1010.01;;;17.76;66.28
48810;BME280;40070;47.322;18.784;2023-05-19T07:22:48;1009.96;;;17.96;65.84
48810;BME280;40070;47.322;18.784;2023-05-19T07:24:54;1009.94;;;17.95;66.28
48810;BME280;40070;47.322;18.784;2023-05-19T07:27:20;1009.91;;;17.65;66.72
48810;BME280;40070;47.322;18.784;2023-05-19T07:29:25;1009.95;;;18.15;66.26
48810;BME280;40070;47.322;18.784;2023-05-19T07:31:32;1009.95;;;18.28;65.58
48810;BME280;40070;47.322;18.784;2023-05-19T07:33:38;1009.99;;;18.10;65.75
48810;BME280;40070;47.322;18.784;2023-05-19T07:35:44;1010.03;;;18.07;65.49
48810;BME280;40070;47.322;18.784;2023-05-19T07:37:50;1010.03;;;18.23;66.74
48810;BME280;40070;47.322;18.784;2023-05-19T07:39:56;1009.99;;;18.33;65.02
48810;BME280;40070;47.322;18.784;2023-05-19T07:42:02;1009.97;;;18.20;64.79
48810;BME280;40070;47.322;18.784;2023-05-19T07:44:08;1009.93;;;18.15;64.49
48810;BME280;40070;47.322;18.784;2023-05-19T07:46:14;1009.94;;;17.83;65.60
48810;BME280;40070;47.322;18.784;2023-05-19T07:48:21;1009.91;;;18.35;64.58
48810;BME280;40070;47.322;18.784;2023-05-19T07:50:27;1009.85;;;18.38;63.55
48810;BME280;40070;47.322;18.784;2023-05-19T07:52:32;1009.84;;;18.43;64.82
48810;BME280;40070;47.322;18.784;2023-05-19T07:54:39;1009.83;;;18.35;64.42
48810;BME280;40070;47.322;18.784;2023-05-19T07:56:45;1009.82;;;18.24;64.22
48810;BME280;40070;47.322;18.784;2023-05-19T07:58:50;1009.79;;;18.70;62.68
48810;BME280;40070;47.322;18.784;2023-05-19T08:00:57;1009.80;;;18.87;64.39
48810;BME280;40070;47.322;18.784;2023-05-19T08:03:02;1009.77;;;18.91;63.17
48810;BME280;40070;47.322;18.784;2023-05-19T08:05:09;1009.74;;;19.08;64.66
48810;BME280;40070;47.322;18.784;2023-05-19T08:07:15;1009.74;;;18.82;63.95
48810;BME280;40070;47.322;18.784;2023-05-19T08:09:21;1009.70;;;19.25;62.70
48810;BME280;40070;47.322;18.784;2023-05-19T08:11:27;1009.74;;;19.37;62.49
48810;BME280;40070;47.322;18.784;2023-05-19T08:13:33;1009.76;;;19.40;63.11
48810;BME280;40070;47.322;18.784;2023-05-19T08:15:39;1009.70;;;19.61;62.43
48810;BME280;40070;47.322;18.784;2023-05-19T08:17:45;1009.78;;;19.51;63.05
48810;BME280;40070;47.322;18.784;2023-05-19T08:19:51;1009.82;;;19.15;64.28
48810;BME280;40070;47.322;18.784;2023-05-19T08:21:52;1009.82;;;19.60;62.22
48810;BME280;40070;47.322;18.784;2023-05-19T08:23:53;1009.84;;;19.12;62.92
48810;BME280;40070;47.322;18.784;2023-05-19T08:28:28;1009.80;;;19.49;62.72
48810;BME280;40070;47.322;18.784;2023-05-19T08:30:34;1009.82;;;19.56;62.07
48810;BME280;40070;47.322;18.784;2023-05-19T08:32:39;1009.77;;;19.26;62.35
48810;BME280;40070;47.322;18.784;2023-05-19T08:34:46;1009.77;;;19.15;61.87
48810;BME280;40070;47.322;18.784;2023-05-19T08:36:52;1009.76;;;19.49;61.35
48810;BME280;40070;47.322;18.784;2023-05-19T08:38:58;1009.73;;;19.30;60.72
48810;BME280;40070;47.322;18.784;2023-05-19T08:41:04;1009.72;;;19.37;61.01
48810;BME280;40070;47.322;18.784;2023-05-19T08:43:11;1009.68;;;19.25;63.00
48810;BME280;40070;47.322;18.784;2023-05-19T08:45:16;1009.63;;;19.63;61.92
48810;BME280;40070;47.322;18.784;2023-05-19T08:47:22;1009.65;;;19.91;60.54
48810;BME280;40070;47.322;18.784;2023-05-19T08:49:29;1009.67;;;20.04;60.76
48810;BME280;40070;47.322;18.784;2023-05-19T08:53:47;1009.68;;;20.13;61.29
48810;BME280;40070;47.322;18.784;2023-05-19T09:03:09;1009.70;;;19.59;61.46
48810;BME280;40070;47.322;18.784;2023-05-19T09:05:22;1009.68;;;19.34;61.85
48810;BME280;40070;47.322;18.784;2023-05-19T09:07:23;1009.69;;;19.21;62.51
48810;BME280;40070;47.322;18.784;2023-05-19T09:09:28;1009.66;;;19.46;63.20
48810;BME280;40070;47.322;18.784;2023-05-19T09:11:34;1009.65;;;19.61;63.11
48810;BME280;40070;47.322;18.784;2023-05-19T09:18:01;1009.59;;;20.56;60.07
48810;BME280;40070;47.322;18.784;2023-05-19T09:25:17;1009.50;;;20.66;60.31
48810;BME280;40070;47.322;18.784;2023-05-19T09:29:27;1009.41;;;21.23;57.70
48810;BME280;40070;47.322;18.784;2023-05-19T09:38:53;1009.30;;;21.64;56.67
48810;BME280;40070;47.322;18.784;2023-05-19T09:41:00;1009.41;;;20.81;57.43
48810;BME280;40070;47.322;18.784;2023-05-19T09:43:06;1009.31;;;21.10;56.32
48810;BME280;40070;47.322;18.784;2023-05-19T09:45:11;1009.34;;;20.50;60.05
48810;BME280;40070;47.322;18.784;2023-05-19T09:47:16;1009.33;;;20.03;61.38
48810;BME280;40070;47.322;18.784;2023-05-19T09:49:24;1009.29;;;20.32;58.34
48810;BME280;40070;47.322;18.784;2023-05-19T09:53:51;1009.24;;;21.32;56.63
48810;BME280;40070;47.322;18.784;2023-05-19T09:58:17;1009.29;;;22.03;55.71
48810;BME280;40070;47.322;18.784;2023-05-19T10:00:19;1009.28;;;21.42;58.75
48810;BME280;40070;47.322;18.784;2023-05-19T10:09:36;1009.21;;;21.12;60.34
48810;BME280;40070;47.322;18.784;2023-05-19T10:11:43;1009.18;;;21.23;59.03
48810;BME280;40070;47.322;18.784;2023-05-19T10:13:50;1009.12;;;21.79;57.87
48810;BME280;40070;47.322;18.784;2023-05-19T10:21:11;1009.02;;;22.05;57.02
48810;BME280;40070;47.322;18.784;2023-05-19T10:23:16;1009.01;;;22.35;53.75
48810;BME280;40070;47.322;18.784;2023-05-19T10:25:23;1008.99;;;22.03;56.19
48810;BME280;40070;47.322;18.784;2023-05-19T10:33:56;1008.94;;;22.25;55.81
48810;BME280;40070;47.322;18.784;2023-05-19T10:41:10;1008.80;;;23.15;53.42
48810;BME280;40070;47.322;18.784;2023-05-19T10:47:28;1008.81;;;22.66;52.98
48810;BME280;40070;47.322;18.784;2023-05-19T10:49:44;1008.75;;;22.81;53.35
48810;BME280;40070;47.322;18.784;2023-05-19T10:56:37;1008.78;;;23.35;51.09
48810;BME280;40070;47.322;18.784;2023-05-19T10:59:01;1008.78;;;23.36;52.38
48810;BME280;40070;47.322;18.784;2023-05-19T11:01:08;1008.83;;;22.93;55.52
48810;BME280;40070;47.322;18.784;2023-05-19T11:03:21;1008.80;;;22.96;53.58
48810;BME280;40070;47.322;18.784;2023-05-19T11:08:08;1008.75;;;22.88;53.92
48810;BME280;40070;47.322;18.784;2023-05-19T11:10:13;1008.71;;;22.99;52.14
48810;BME280;40070;47.322;18.784;2023-05-19T11:17:13;1008.65;;;22.89;50.97
48810;BME280;40070;47.322;18.784;2023-05-19T11:29:25;1008.65;;;22.98;53.89
48810;BME280;40070;47.322;18.784;2023-05-19T11:31:31;1008.54;;;23.18;51.41
48810;BME280;40070;47.322;18.784;2023-05-19T11:33:37;1008.61;;;23.22;51.57
48810;BME280;40070;47.322;18.784;2023-05-19T11:35:46;1008.60;;;23.36;52.28
48810;BME280;40070;47.322;18.784;2023-05-19T11:37:49;1008.64;;;23.73;53.93
48810;BME280;40070;47.322;18.784;2023-05-19T11:39:55;1008.63;;;23.86;52.13
48810;BME280;40070;47.322;18.784;2023-05-19T11:42:09;1008.64;;;23.91;51.33
48810;BME280;40070;47.322;18.784;2023-05-19T11:44:10;1008.64;;;23.55;52.40
48810;BME280;40070;47.322;18.784;2023-05-19T11:46:11;1008.60;;;23.53;51.23
48810;BME280;40070;47.322;18.784;2023-05-19T11:48:12;1008.56;;;23.11;50.92
48810;BME280;40070;47.322;18.784;2023-05-19T11:50:13;1008.52;;;23.18;51.82
48810;BME280;40070;47.322;18.784;2023-05-19T11:52:19;1008.57;;;23.14;52.05
48810;BME280;40070;47.322;18.784;2023-05-19T11:54:28;1008.53;;;23.01;52.40
48810;BME280;40070;47.322;18.784;2023-05-19T11:56:36;1008.59;;;22.81;52.42
48810;BME280;40070;47.322;18.784;2023-05-19T11:58:47;1008.51;;;23.06;52.51
48810;BME280;40070;47.322;18.784;2023-05-19T12:00:48;1008.50;;;23.32;51.54
48810;BME280;40070;47.322;18.784;2023-05-19T12:02:49;1008.50;;;23.54;51.92
48810;BME280;40070;47.322;18.784;2023-05-19T12:04:50;1008.50;;;23.85;52.05
48810;BME280;40070;47.322;18.784;2023-05-19T12:06:51;1008.46;;;23.68;49.35
48810;BME280;40070;47.322;18.784;2023-05-19T12:08:55;1008.45;;;24.15;49.03
48810;BME280;40070;47.322;18.784;2023-05-19T12:10:56;1008.45;;;24.18;48.88
48810;BME280;40070;47.322;18.784;2023-05-19T12:12:57;1008.43;;;24.10;52.10
48810;BME280;40070;47.322;18.784;2023-05-19T12:14:58;1008.43;;;24.17;49.98
48810;BME280;40070;47.322;18.784;2023-05-19T12:17:11;1008.38;;;23.95;49.58
48810;BME280;40070;47.322;18.784;2023-05-19T12:19:33;1008.34;;;23.82;49.66
48810;BME280;40070;47.322;18.784;2023-05-19T12:21:34;1008.29;;;23.78;50.50
48810;BME280;40070;47.322;18.784;2023-05-19T12:23:35;1008.28;;;23.61;49.78
48810;BME280;40070;47.322;18.784;2023-05-19T12:25:36;1008.21;;;23.71;49.46
48810;BME280;40070;47.322;18.784;2023-05-19T12:27:37;1008.19;;;23.69;50.70
48810;BME280;40070;47.322;18.784;2023-05-19T12:29:40;1008.15;;;24.12;50.80
48810;BME280;40070;47.322;18.784;2023-05-19T12:31:40;1008.09;;;24.01;48.53
48810;BME280;40070;47.322;18.784;2023-05-19T12:33:41;1008.06;;;23.73;49.10
48810;BME280;40070;47.322;18.784;2023-05-19T12:35:43;1008.05;;;24.00;49.66
48810;BME280;40070;47.322;18.784;2023-05-19T12:37:44;1007.99;;;24.16;49.42
48810;BME280;40070;47.322;18.784;2023-05-19T12:39:45;1007.94;;;24.32;48.61
48810;BME280;40070;47.322;18.784;2023-05-19T12:42:10;1007.95;;;23.98;49.79
48810;BME280;40070;47.322;18.784;2023-05-19T12:44:14;1008.00;;;23.80;54.55
48810;BME280;40070;47.322;18.784;2023-05-19T12:46:17;1008.01;;;23.25;53.60
48810;BME280;40070;47.322;18.784;2023-05-19T12:48:20;1007.99;;;23.02;53.46
48810;BME280;40070;47.322;18.784;2023-05-19T12:50:21;1007.95;;;23.47;52.24
48810;BME280;40070;47.322;18.784;2023-05-19T12:52:40;1007.91;;;23.60;51.95
48810;BME280;40070;47.322;18.784;2023-05-19T12:54:41;1007.90;;;23.81;51.25
48810;BME280;40070;47.322;18.784;2023-05-19T12:56:48;1007.85;;;23.84;49.52
48810;BME280;40070;47.322;18.784;2023-05-19T12:58:52;1007.83;;;23.66;49.08
48810;BME280;40070;47.322;18.784;2023-05-19T13:01:14;1007.84;;;24.02;49.67
48810;BME280;40070;47.322;18.784;2023-05-19T13:03:29;1007.79;;;24.26;51.40
48810;BME280;40070;47.322;18.784;2023-05-19T13:05:33;1007.81;;;24.03;48.95
48810;BME280;40070;47.322;18.784;2023-05-19T13:07:34;1007.77;;;24.33;51.27
48810;BME280;40070;47.322;18.784;2023-05-19T13:09:35;1007.79;;;24.59;50.77
48810;BME280;40070;47.322;18.784;2023-05-19T13:11:36;1007.75;;;24.65;48.91
48810;BME280;40070;47.322;18.784;2023-05-19T13:13:37;1007.74;;;24.61;48.61